Time;durP1;ratioP1;P1;durP2;ratioP2;P2;SDS_P1;SDS_P2;PMS_P1;PMS_P2;Temp;Humidity;BMP_temperature;BMP_pressure;BME280_temperature;BME280_humidity;BME280_pressure;Samples;Min_cycle;Max_cycle;Signal;HPM_P1;HPM_P2
2022/12/06 00:00:44;;;;;;;;;;;19.00;41.70;;;;;;5093225;28;19955;-64
2022/12/06 00:03:11;;;;;;;;;;;19.00;41.70;;;;;;5085343;28;19973;-66
2022/12/06 00:05:38;;;;;;;;;;;19.00;41.70;;;;;;5093193;28;19919;-70
2022/12/06 00:08:05;;;;;;;;;;;19.00;41.70;;;;;;5092279;28;19927;-68
2022/12/06 00:10:34;;;;;;;;;;;19.00;41.70;;;;;;5109979;28;19924;-66
2022/12/06 00:13:02;;;;;;;;;;;19.00;41.70;;;;;;5111294;28;19930;-67
2022/12/06 00:15:29;;;;;;;;;;;19.00;41.70;;;;;;5093103;28;19927;-66
2022/12/06 00:17:55;;;;;;;;;;;19.00;41.70;;;;;;5108384;28;19920;-64
2022/12/06 00:20:22;;;;;;;;;;;19.00;41.70;;;;;;5111275;28;20039;-64
2022/12/06 00:22:49;;;;;;;;;;;19.00;41.70;;;;;;5081211;28;19920;-67
2022/12/06 00:25:16;;;;;;;;;;;19.00;41.70;;;;;;5106981;28;19965;-66
2022/12/06 00:27:42;;;;;;;;;;;19.00;41.80;;;;;;5084276;28;19928;-64
2022/12/06 00:30:11;;;;;;;;;;;19.00;41.70;;;;;;5092833;28;19921;-66
2022/12/06 00:32:38;;;;;;;;;;;19.00;41.80;;;;;;5092827;28;19920;-66
2022/12/06 00:35:05;;;;;;;;;;;19.00;41.80;;;;;;5092504;28;19919;-65
2022/12/06 00:37:32;;;;;;;;;;;19.00;41.80;;;;;;5100299;28;19934;-65
2022/12/06 00:39:59;;;;;;;;;;;19.00;41.70;;;;;;5085103;28;19920;-65
2022/12/06 00:42:26;;;;;;;;;;;19.00;41.80;;;;;;5091617;28;19923;-68
2022/12/06 00:44:53;;;;;;;;;;;19.00;41.80;;;;;;5089298;28;19919;-64
2022/12/06 00:47:21;;;;;;;;;;;19.00;41.80;;;;;;5105309;28;19920;-64
2022/12/06 00:49:47;;;;;;;;;;;19.00;41.80;;;;;;5074252;28;19924;-65
2022/12/06 00:52:14;;;;;;;;;;;19.00;41.80;;;;;;5072731;28;20377;-68
2022/12/06 00:54:41;;;;;;;;;;;19.00;41.70;;;;;;5092399;28;19920;-64
2022/12/06 00:57:08;;;;;;;;;;;19.00;41.80;;;;;;5109820;28;19919;-64
2022/12/06 00:59:34;;;;;;;;;;;19.00;41.80;;;;;;5087248;28;19920;-66
2022/12/06 01:02:01;;;;;;;;;;;19.00;41.80;;;;;;5092189;28;20280;-66
2022/12/06 01:04:29;;;;;;;;;;;19.00;41.80;;;;;;5092264;28;19920;-63
2022/12/06 01:06:56;;;;;;;;;;;19.00;41.70;;;;;;5092262;28;20024;-67
2022/12/06 01:09:23;;;;;;;;;;;19.00;41.70;;;;;;5091502;28;19931;-68
2022/12/06 01:11:49;;;;;;;;;;;19.00;41.70;;;;;;5091362;28;19969;-64
2022/12/06 01:14:16;;;;;;;;;;;19.00;41.80;;;;;;5078132;28;19953;-67
2022/12/06 01:16:43;;;;;;;;;;;19.00;41.80;;;;;;5072010;28;19924;-66
2022/12/06 01:19:11;;;;;;;;;;;19.00;41.80;;;;;;5089403;28;19920;-64
2022/12/06 01:21:39;;;;;;;;;;;19.00;41.70;;;;;;5091745;28;20493;-64
2022/12/06 01:24:06;;;;;;;;;;;19.00;41.80;;;;;;5091586;28;19924;-64
2022/12/06 01:26:34;;;;;;;;;;;19.00;41.70;;;;;;5110255;28;19967;-66
2022/12/06 01:29:00;;;;;;;;;;;19.00;41.80;;;;;;5076369;28;19923;-64
2022/12/06 01:31:27;;;;;;;;;;;19.00;41.80;;;;;;5091131;28;19942;-65
2022/12/06 01:33:54;;;;;;;;;;;19.00;41.70;;;;;;5090697;28;19931;-68
2022/12/06 01:36:21;;;;;;;;;;;18.90;41.70;;;;;;5073630;28;19955;-71
2022/12/06 01:38:50;;;;;;;;;;;18.90;41.60;;;;;;5078380;28;20011;-64
2022/12/06 01:41:17;;;;;;;;;;;18.90;41.60;;;;;;5085491;28;20345;-67
2022/12/06 01:43:44;;;;;;;;;;;19.00;41.70;;;;;;5073426;28;19947;-64
2022/12/06 01:46:14;;;;;;;;;;;18.90;41.70;;;;;;5086561;28;19931;-70
2022/12/06 01:48:41;;;;;;;;;;;19.00;41.80;;;;;;5089717;28;19920;-64
2022/12/06 01:51:08;;;;;;;;;;;18.90;41.60;;;;;;5089966;28;20384;-64
2022/12/06 01:53:35;;;;;;;;;;;18.90;41.60;;;;;;5091858;28;19941;-66
2022/12/06 01:56:03;;;;;;;;;;;18.90;41.60;;;;;;5110078;28;19972;-64
2022/12/06 01:58:31;;;;;;;;;;;19.00;41.70;;;;;;5079420;28;19931;-66
2022/12/06 02:00:58;;;;;;;;;;;18.90;41.70;;;;;;5104414;28;20374;-68
2022/12/06 02:03:26;;;;;;;;;;;18.90;41.70;;;;;;5071213;28;19931;-65
2022/12/06 02:05:52;;;;;;;;;;;18.90;41.60;;;;;;5104896;28;19931;-63
2022/12/06 02:08:19;;;;;;;;;;;18.90;41.60;;;;;;5090299;28;20307;-67
2022/12/06 02:10:46;;;;;;;;;;;18.90;41.60;;;;;;5091190;28;19924;-64
2022/12/06 02:13:14;;;;;;;;;;;18.90;41.60;;;;;;5091273;28;19927;-64
2022/12/06 02:15:43;;;;;;;;;;;18.90;41.60;;;;;;5091717;28;19924;-68
2022/12/06 02:18:11;;;;;;;;;;;18.90;41.60;;;;;;5078195;28;19920;-64
2022/12/06 02:20:39;;;;;;;;;;;18.90;41.60;;;;;;5101124;28;19920;-72
2022/12/06 02:23:20;;;;;;;;;;;18.90;41.60;;;;;;5072057;28;19920;-65
2022/12/06 02:26:04;;;;;;;;;;;18.90;41.60;;;;;;5080807;28;19973;-69
2022/12/06 02:28:58;;;;;;;;;;;18.90;41.60;;;;;;5093378;28;19974;-66
2022/12/06 02:31:27;;;;;;;;;;;18.90;41.60;;;;;;5093565;28;19920;-65
2022/12/06 02:33:54;;;;;;;;;;;18.90;41.60;;;;;;5094460;28;19924;-64
2022/12/06 02:36:22;;;;;;;;;;;18.90;41.70;;;;;;5085109;28;19920;-70
2022/12/06 02:38:49;;;;;;;;;;;18.90;41.60;;;;;;5108252;28;19920;-66
2022/12/06 02:41:18;;;;;;;;;;;18.90;41.60;;;;;;5109828;28;20366;-64
2022/12/06 02:43:46;;;;;;;;;;;18.90;41.60;;;;;;5094946;28;19920;-65
2022/12/06 02:46:13;;;;;;;;;;;18.90;41.60;;;;;;5095035;28;19924;-64
2022/12/06 02:48:41;;;;;;;;;;;18.90;41.60;;;;;;5103795;28;19920;-64
2022/12/06 02:51:08;;;;;;;;;;;18.90;41.70;;;;;;5094227;28;20376;-65
2022/12/06 02:53:37;;;;;;;;;;;18.90;41.60;;;;;;5091375;28;19920;-64
2022/12/06 02:56:03;;;;;;;;;;;18.90;41.70;;;;;;5088906;28;20277;-66
2022/12/06 02:58:33;;;;;;;;;;;18.90;41.60;;;;;;5079758;28;19931;-63
2022/12/06 03:01:00;;;;;;;;;;;18.90;41.70;;;;;;5087513;28;19920;-64
2022/12/06 03:03:44;;;;;;;;;;;18.90;41.60;;;;;;5094521;28;19919;-66
2022/12/06 03:06:16;;;;;;;;;;;18.90;41.60;;;;;;5112911;28;19988;-66
2022/12/06 03:08:45;;;;;;;;;;;18.90;41.70;;;;;;5106838;28;19927;-67
2022/12/06 03:11:12;;;;;;;;;;;18.90;41.70;;;;;;5088552;28;19924;-69
2022/12/06 03:13:39;;;;;;;;;;;18.90;41.60;;;;;;5095019;28;19973;-64
2022/12/06 03:16:07;;;;;;;;;;;18.90;41.60;;;;;;5112180;28;19924;-68
2022/12/06 03:18:35;;;;;;;;;;;18.90;41.60;;;;;;5097758;28;19935;-64
2022/12/06 03:21:04;;;;;;;;;;;18.90;41.60;;;;;;5103539;28;19931;-67
2022/12/06 03:23:31;;;;;;;;;;;18.90;41.70;;;;;;5090756;28;19924;-69
2022/12/06 03:25:58;;;;;;;;;;;18.90;41.70;;;;;;5092731;28;19927;-65
2022/12/06 03:28:25;;;;;;;;;;;18.90;41.70;;;;;;5092821;28;19920;-69
2022/12/06 03:30:52;;;;;;;;;;;18.90;41.70;;;;;;5100084;28;19920;-63
2022/12/06 03:33:19;;;;;;;;;;;18.90;41.70;;;;;;5094099;28;20158;-66
2022/12/06 03:35:46;;;;;;;;;;;18.90;41.60;;;;;;5093614;28;19924;-65
2022/12/06 03:38:16;;;;;;;;;;;18.90;41.60;;;;;;5078798;28;19920;-64
2022/12/06 03:40:44;;;;;;;;;;;18.90;41.60;;;;;;5100498;28;19924;-64
2022/12/06 03:43:10;;;;;;;;;;;18.90;41.70;;;;;;5089478;28;20369;-67
2022/12/06 03:45:38;;;;;;;;;;;18.90;41.70;;;;;;5089434;28;19920;-69
2022/12/06 03:48:05;;;;;;;;;;;18.90;41.70;;;;;;5092524;28;19928;-67
2022/12/06 03:50:33;;;;;;;;;;;18.90;41.70;;;;;;5092667;28;19968;-66
2022/12/06 03:53:00;;;;;;;;;;;18.90;41.70;;;;;;5093587;28;19920;-69
2022/12/06 03:55:28;;;;;;;;;;;18.90;41.70;;;;;;5093371;28;19926;-63
2022/12/06 03:57:55;;;;;;;;;;;18.90;41.70;;;;;;5091954;28;19919;-67
2022/12/06 04:00:22;;;;;;;;;;;18.90;41.70;;;;;;5085388;28;20336;-68
2022/12/06 04:02:49;;;;;;;;;;;18.90;41.70;;;;;;5093560;28;19942;-65
2022/12/06 04:05:16;;;;;;;;;;;18.90;41.70;;;;;;5093285;28;19932;-67
2022/12/06 04:07:42;;;;;;;;;;;18.90;41.70;;;;;;5110890;28;19920;-70
2022/12/06 04:10:11;;;;;;;;;;;18.90;41.70;;;;;;5092902;28;19941;-65
2022/12/06 04:15:23;;;;;;;;;;;18.90;41.70;;;;;;5087403;28;19924;-67
2022/12/06 04:23:15;;;;;;;;;;;18.90;41.70;;;;;;5110395;28;19928;-71
2022/12/06 04:25:42;;;;;;;;;;;18.90;41.70;;;;;;5092629;28;19920;-69
2022/12/06 04:39:07;;;;;;;;;;;18.90;41.70;;;;;;5075049;28;19967;-68
2022/12/06 04:44:20;;;;;;;;;;;18.90;41.70;;;;;;5086613;28;19943;-66
2022/12/06 04:46:48;;;;;;;;;;;18.90;41.70;;;;;;5082387;28;22127;-67
2022/12/06 04:49:15;;;;;;;;;;;18.90;41.70;;;;;;5082975;28;19935;-65
2022/12/06 04:51:42;;;;;;;;;;;18.90;41.70;;;;;;5085235;28;19919;-69
2022/12/06 04:54:09;;;;;;;;;;;18.90;41.70;;;;;;5092633;28;19920;-65
2022/12/06 04:56:35;;;;;;;;;;;18.90;41.70;;;;;;5089925;28;19924;-66
2022/12/06 04:59:02;;;;;;;;;;;18.90;41.70;;;;;;5109727;28;19924;-69
2022/12/06 05:01:31;;;;;;;;;;;18.90;41.70;;;;;;5110944;28;19967;-67
2022/12/06 05:03:57;;;;;;;;;;;18.90;41.70;;;;;;5091277;28;19920;-65
2022/12/06 05:06:24;;;;;;;;;;;18.90;41.70;;;;;;5092133;28;19920;-69
2022/12/06 05:08:51;;;;;;;;;;;18.90;41.70;;;;;;5095452;28;19973;-68
2022/12/06 05:11:18;;;;;;;;;;;18.90;41.80;;;;;;5084527;28;19927;-65
2022/12/06 05:13:45;;;;;;;;;;;18.90;41.70;;;;;;5091442;28;19973;-67
2022/12/06 05:16:11;;;;;;;;;;;18.90;41.80;;;;;;5110303;28;19930;-67
2022/12/06 05:18:39;;;;;;;;;;;18.90;41.70;;;;;;5109384;28;19965;-73
2022/12/06 05:21:07;;;;;;;;;;;18.90;41.80;;;;;;5091225;28;19928;-65
2022/12/06 05:23:33;;;;;;;;;;;18.90;41.70;;;;;;5087277;28;19924;-65
2022/12/06 05:26:01;;;;;;;;;;;18.90;41.70;;;;;;5081912;28;19919;-64
2022/12/06 05:28:28;;;;;;;;;;;18.90;41.70;;;;;;5109177;28;19920;-68
2022/12/06 05:30:55;;;;;;;;;;;18.90;41.80;;;;;;5081680;28;19957;-68
2022/12/06 05:33:22;;;;;;;;;;;18.90;41.70;;;;;;5091507;28;19923;-65
2022/12/06 05:35:50;;;;;;;;;;;18.90;41.70;;;;;;5090902;28;19932;-66
2022/12/06 05:38:17;;;;;;;;;;;18.90;41.80;;;;;;5090632;28;20023;-65
2022/12/06 05:40:44;;;;;;;;;;;18.90;41.70;;;;;;5077072;28;19925;-66
2022/12/06 05:43:10;;;;;;;;;;;18.90;41.70;;;;;;5091805;28;19920;-65
2022/12/06 05:45:37;;;;;;;;;;;18.90;41.70;;;;;;5090434;28;19974;-70
2022/12/06 05:48:04;;;;;;;;;;;18.90;41.80;;;;;;5088787;28;19941;-68
2022/12/06 05:50:31;;;;;;;;;;;18.90;41.70;;;;;;5091483;28;20392;-66
2022/12/06 05:52:59;;;;;;;;;;;18.90;41.70;;;;;;5091233;28;20281;-67
2022/12/06 05:55:26;;;;;;;;;;;18.90;41.70;;;;;;5105550;28;19943;-71
2022/12/06 05:57:53;;;;;;;;;;;18.90;41.80;;;;;;5090614;28;19978;-69
2022/12/06 06:00:20;;;;;;;;;;;18.90;41.80;;;;;;5095460;28;19927;-67
2022/12/06 06:02:47;;;;;;;;;;;18.90;41.80;;;;;;5095581;28;19928;-65
2022/12/06 06:05:14;;;;;;;;;;;18.90;41.80;;;;;;5091963;28;19973;-70
2022/12/06 06:07:41;;;;;;;;;;;18.90;41.80;;;;;;5090872;28;20013;-66
2022/12/06 06:10:09;;;;;;;;;;;18.90;41.70;;;;;;5112349;28;19946;-70
2022/12/06 06:12:36;;;;;;;;;;;18.90;41.80;;;;;;5088610;28;20422;-67
2022/12/06 06:15:05;;;;;;;;;;;18.90;41.80;;;;;;5094538;28;19920;-65
2022/12/06 06:17:32;;;;;;;;;;;18.90;41.80;;;;;;5093946;28;19969;-66
2022/12/06 06:20:04;;;;;;;;;;;18.90;41.80;;;;;;5089861;28;19920;-71
2022/12/06 06:22:30;;;;;;;;;;;18.90;41.80;;;;;;5094228;28;19943;-65
2022/12/06 06:24:57;;;;;;;;;;;18.90;41.80;;;;;;5113495;28;19920;-65
2022/12/06 06:27:26;;;;;;;;;;;18.90;41.80;;;;;;5093834;28;19923;-66
2022/12/06 06:29:53;;;;;;;;;;;18.90;41.80;;;;;;5091376;28;19924;-65
2022/12/06 06:32:20;;;;;;;;;;;18.90;41.70;;;;;;5113282;28;19923;-66
2022/12/06 06:34:47;;;;;;;;;;;18.90;41.80;;;;;;5093293;28;20370;-69
2022/12/06 06:37:13;;;;;;;;;;;18.90;41.80;;;;;;5094164;28;19978;-65
2022/12/06 06:39:43;;;;;;;;;;;18.90;41.80;;;;;;5093433;28;20026;-65
2022/12/06 06:42:10;;;;;;;;;;;18.90;41.80;;;;;;5094008;28;19923;-65
2022/12/06 06:44:38;;;;;;;;;;;18.90;41.80;;;;;;5094602;28;19988;-71
2022/12/06 06:47:05;;;;;;;;;;;18.90;41.80;;;;;;5085381;28;19992;-68
2022/12/06 06:49:31;;;;;;;;;;;18.90;41.80;;;;;;5106396;28;20006;-67
2022/12/06 06:51:58;;;;;;;;;;;18.90;41.80;;;;;;5097799;28;20227;-67
2022/12/06 06:54:28;;;;;;;;;;;18.90;41.80;;;;;;5094648;28;19984;-65
2022/12/06 06:56:55;;;;;;;;;;;18.90;41.80;;;;;;5106968;28;19923;-67
2022/12/06 06:59:22;;;;;;;;;;;18.90;41.80;;;;;;5111865;28;19987;-66
2022/12/06 07:01:50;;;;;;;;;;;18.90;41.80;;;;;;5090851;28;19945;-67
2022/12/06 07:04:20;;;;;;;;;;;18.90;41.80;;;;;;5076132;28;20372;-66
2022/12/06 07:06:47;;;;;;;;;;;18.90;41.80;;;;;;5082345;28;19938;-65
2022/12/06 07:09:15;;;;;;;;;;;18.90;41.80;;;;;;5098924;28;19920;-65
2022/12/06 07:11:42;;;;;;;;;;;18.90;41.60;;;;;;5110740;28;19932;-65
2022/12/06 07:14:09;;;;;;;;;;;18.90;41.60;;;;;;5093791;28;19927;-65
2022/12/06 07:16:36;;;;;;;;;;;18.90;41.50;;;;;;5092155;28;19928;-69
2022/12/06 07:19:04;;;;;;;;;;;18.90;41.50;;;;;;5093549;28;19931;-66
2022/12/06 07:21:30;;;;;;;;;;;18.90;41.60;;;;;;5086372;28;19932;-67
2022/12/06 07:23:59;;;;;;;;;;;18.90;41.60;;;;;;5090753;28;19927;-64
2022/12/06 07:26:27;;;;;;;;;;;18.90;41.60;;;;;;5106320;28;19977;-64
2022/12/06 07:28:56;;;;;;;;;;;18.90;41.60;;;;;;5082578;28;19924;-68
2022/12/06 07:31:26;;;;;;;;;;;18.90;41.60;;;;;;5092423;28;19975;-70
2022/12/06 07:33:54;;;;;;;;;;;18.90;42.20;;;;;;5088759;28;20436;-66
2022/12/06 07:36:22;;;;;;;;;;;18.90;41.70;;;;;;5086176;28;19992;-69
2022/12/06 07:38:49;;;;;;;;;;;18.90;41.70;;;;;;5092298;28;19993;-67
2022/12/06 07:46:44;;;;;;;;;;;18.90;41.70;;;;;;5106874;27;19924;-70
2022/12/06 07:49:11;;;;;;;;;;;18.90;41.70;;;;;;5092256;28;20216;-66
2022/12/06 07:51:39;;;;;;;;;;;18.90;41.70;;;;;;5092099;28;19926;-68
2022/12/06 07:54:06;;;;;;;;;;;18.90;41.80;;;;;;5109505;28;19974;-67
2022/12/06 07:56:33;;;;;;;;;;;18.90;41.80;;;;;;5110124;27;20044;-69
2022/12/06 07:59:00;;;;;;;;;;;18.90;41.80;;;;;;5088777;28;19920;-68
2022/12/06 08:01:27;;;;;;;;;;;18.90;41.80;;;;;;5109023;27;19919;-74
2022/12/06 08:03:55;;;;;;;;;;;18.90;41.80;;;;;;5087757;28;19920;-67
2022/12/06 08:06:21;;;;;;;;;;;18.90;41.80;;;;;;5089869;28;19919;-70
2022/12/06 08:08:50;;;;;;;;;;;19.00;41.90;;;;;;5094919;28;19973;-73
2022/12/06 08:11:16;;;;;;;;;;;19.00;41.90;;;;;;5096788;28;19919;-66
2022/12/06 08:13:43;;;;;;;;;;;19.00;41.90;;;;;;5092849;28;19920;-72
2022/12/06 08:16:11;;;;;;;;;;;19.00;41.90;;;;;;5094048;28;19927;-67
2022/12/06 08:18:38;;;;;;;;;;;19.00;41.90;;;;;;5092144;28;19931;-67
2022/12/06 08:21:05;;;;;;;;;;;19.00;41.90;;;;;;5095285;28;19992;-77
2022/12/06 08:23:32;;;;;;;;;;;19.00;41.90;;;;;;5095129;28;19923;-75
2022/12/06 08:26:01;;;;;;;;;;;19.00;41.90;;;;;;5094583;28;19919;-68
2022/12/06 08:28:27;;;;;;;;;;;19.00;41.90;;;;;;5114928;27;19924;-73
2022/12/06 08:30:54;;;;;;;;;;;19.00;41.90;;;;;;5114374;28;19953;-68
2022/12/06 08:33:21;;;;;;;;;;;19.00;42.00;;;;;;5094652;28;19919;-68
2022/12/06 08:35:48;;;;;;;;;;;19.00;42.00;;;;;;5094396;27;19969;-68
2022/12/06 08:38:15;;;;;;;;;;;19.00;42.00;;;;;;5109574;28;19973;-68
2022/12/06 08:40:42;;;;;;;;;;;19.00;42.00;;;;;;5091341;28;20277;-69
2022/12/06 08:43:10;;;;;;;;;;;19.00;42.00;;;;;;5093347;28;19920;-71
2022/12/06 08:45:37;;;;;;;;;;;19.00;42.00;;;;;;5097534;28;19945;-71
2022/12/06 08:48:03;;;;;;;;;;;19.10;42.70;;;;;;5106959;28;19926;-68
2022/12/06 08:50:30;;;;;;;;;;;19.10;42.10;;;;;;5094677;28;19953;-71
2022/12/06 08:52:57;;;;;;;;;;;19.10;42.10;;;;;;5092858;28;20621;-69
2022/12/06 08:55:24;;;;;;;;;;;19.10;42.10;;;;;;5091488;28;19927;-67
2022/12/06 08:57:51;;;;;;;;;;;19.10;42.10;;;;;;5093461;28;19920;-70
2022/12/06 09:00:19;;;;;;;;;;;19.10;42.20;;;;;;5090832;28;19931;-66
2022/12/06 09:02:46;;;;;;;;;;;19.10;42.20;;;;;;5094272;28;19949;-66
2022/12/06 09:05:13;;;;;;;;;;;19.10;42.20;;;;;;5092401;28;19943;-67
2022/12/06 09:07:40;;;;;;;;;;;19.10;42.20;;;;;;5088910;28;19923;-68
2022/12/06 09:10:07;;;;;;;;;;;19.10;42.20;;;;;;5089791;28;19942;-69
2022/12/06 09:12:34;;;;;;;;;;;19.10;42.20;;;;;;5091590;28;19927;-67
2022/12/06 09:15:01;;;;;;;;;;;19.10;42.20;;;;;;5091016;28;19965;-70
2022/12/06 09:17:29;;;;;;;;;;;19.10;42.20;;;;;;5111400;28;19920;-67
2022/12/06 09:19:56;;;;;;;;;;;19.10;42.20;;;;;;5092767;28;19926;-67
2022/12/06 09:22:23;;;;;;;;;;;19.10;42.30;;;;;;5113691;27;19931;-68
2022/12/06 09:24:49;;;;;;;;;;;19.10;42.20;;;;;;5109719;28;20369;-68
2022/12/06 09:27:16;;;;;;;;;;;19.10;42.20;;;;;;5092395;28;20306;-68
2022/12/06 09:29:43;;;;;;;;;;;19.10;42.20;;;;;;5112611;28;19931;-67
2022/12/06 09:32:10;;;;;;;;;;;19.10;42.30;;;;;;5092892;28;19960;-69
2022/12/06 09:34:38;;;;;;;;;;;19.10;42.20;;;;;;5089987;28;19927;-74
2022/12/06 09:37:05;;;;;;;;;;;19.10;42.30;;;;;;5112927;27;20000;-73
2022/12/06 09:39:32;;;;;;;;;;;19.10;42.30;;;;;;5091982;28;19930;-72
2022/12/06 09:42:18;;;;;;;;;;;19.20;42.30;;;;;;5092323;28;19927;-68
2022/12/06 09:44:49;;;;;;;;;;;19.10;42.30;;;;;;5088642;28;20280;-69
2022/12/06 09:47:17;;;;;;;;;;;19.20;42.40;;;;;;5089931;28;19920;-69
2022/12/06 09:49:48;;;;;;;;;;;19.20;42.40;;;;;;5090944;28;20399;-69
2022/12/06 09:52:30;;;;;;;;;;;19.20;42.40;;;;;;5091776;28;19920;-68
2022/12/06 09:55:03;;;;;;;;;;;19.20;42.40;;;;;;5090358;28;20224;-67
2022/12/06 09:57:31;;;;;;;;;;;19.20;42.40;;;;;;5109208;28;19920;-68
2022/12/06 09:59:59;;;;;;;;;;;19.20;42.40;;;;;;5091474;28;19931;-73
2022/12/06 10:02:33;;;;;;;;;;;19.20;42.40;;;;;;5090827;28;19996;-70
2022/12/06 10:05:08;;;;;;;;;;;19.20;42.40;;;;;;5092944;28;19976;-72
2022/12/06 10:07:38;;;;;;;;;;;19.20;42.40;;;;;;5109934;28;19941;-69
2022/12/06 10:10:09;;;;;;;;;;;19.20;42.40;;;;;;5094465;28;19924;-69
2022/12/06 10:12:41;;;;;;;;;;;19.20;42.40;;;;;;5089723;28;19920;-66
2022/12/06 10:15:16;;;;;;;;;;;19.20;42.50;;;;;;5103659;28;19953;-67
2022/12/06 10:17:48;;;;;;;;;;;19.20;42.50;;;;;;5094741;28;20045;-72
2022/12/06 10:20:18;;;;;;;;;;;19.20;42.50;;;;;;5089282;28;19959;-69
2022/12/06 10:22:49;;;;;;;;;;;19.20;42.50;;;;;;5091437;28;19920;-69
2022/12/06 10:25:17;;;;;;;;;;;19.20;42.50;;;;;;5092125;28;19920;-67
2022/12/06 10:27:47;;;;;;;;;;;19.20;42.50;;;;;;5089260;28;19938;-67
2022/12/06 10:30:14;;;;;;;;;;;19.20;42.50;;;;;;5091161;28;19927;-68
2022/12/06 10:33:04;;;;;;;;;;;19.20;42.50;;;;;;5091213;28;19963;-70
2022/12/06 10:35:39;;;;;;;;;;;19.20;42.50;;;;;;5091006;28;19930;-68
2022/12/06 10:38:10;;;;;;;;;;;19.20;42.50;;;;;;5089668;28;19928;-67
2022/12/06 10:40:39;;;;;;;;;;;19.20;42.50;;;;;;5092777;28;19927;-67
2022/12/06 10:43:08;;;;;;;;;;;19.30;42.60;;;;;;5092025;28;19920;-70
2022/12/06 10:48:22;;;;;;;;;;;19.30;42.60;;;;;;5095137;28;20092;-70
2022/12/06 10:50:51;;;;;;;;;;;19.30;42.60;;;;;;5094443;28;19920;-67
2022/12/06 10:53:18;;;;;;;;;;;19.20;42.50;;;;;;5095596;27;19919;-71
2022/12/06 10:55:46;;;;;;;;;;;19.30;42.60;;;;;;5098219;28;19920;-68
2022/12/06 10:58:15;;;;;;;;;;;19.30;42.60;;;;;;5095384;27;19919;-68
2022/12/06 11:00:45;;;;;;;;;;;19.30;42.60;;;;;;5092251;27;19920;-71
2022/12/06 11:03:13;;;;;;;;;;;19.30;42.70;;;;;;5093499;27;19931;-72
2022/12/06 11:05:41;;;;;;;;;;;19.30;42.70;;;;;;5090766;28;19932;-73
2022/12/06 11:08:10;;;;;;;;;;;19.30;42.60;;;;;;5109270;27;19924;-74
2022/12/06 11:10:37;;;;;;;;;;;19.30;42.70;;;;;;5093847;28;19927;-69
2022/12/06 11:13:10;;;;;;;;;;;19.30;42.70;;;;;;5095921;28;19923;-72
2022/12/06 11:15:38;;;;;;;;;;;19.30;42.70;;;;;;5095192;28;19923;-68
2022/12/06 11:18:05;;;;;;;;;;;19.30;42.70;;;;;;5108944;27;19927;-68
2022/12/06 11:20:33;;;;;;;;;;;19.30;42.70;;;;;;5094164;28;19923;-70
2022/12/06 11:23:04;;;;;;;;;;;19.30;42.70;;;;;;5094407;28;19923;-69
2022/12/06 11:25:35;;;;;;;;;;;19.30;42.70;;;;;;5093550;27;19927;-66
2022/12/06 11:28:04;;;;;;;;;;;19.30;42.70;;;;;;5094075;28;20288;-68
2022/12/06 11:30:30;;;;;;;;;;;19.30;42.70;;;;;;5092180;27;19924;-71
2022/12/06 11:32:57;;;;;;;;;;;19.30;42.70;;;;;;5089021;28;19920;-68
2022/12/06 11:35:25;;;;;;;;;;;19.30;42.70;;;;;;5097277;27;19977;-69
2022/12/06 11:37:53;;;;;;;;;;;19.30;42.70;;;;;;5112702;28;20396;-71
2022/12/06 11:40:22;;;;;;;;;;;19.30;42.70;;;;;;5082232;28;19920;-70
2022/12/06 11:42:50;;;;;;;;;;;19.30;42.70;;;;;;5090151;27;20423;-68
2022/12/06 11:45:20;;;;;;;;;;;19.30;42.70;;;;;;5112934;27;19920;-69
2022/12/06 11:47:47;;;;;;;;;;;19.30;42.70;;;;;;5114008;27;19969;-68
2022/12/06 11:50:15;;;;;;;;;;;19.30;42.60;;;;;;5107877;28;19966;-69
2022/12/06 11:52:42;;;;;;;;;;;19.30;42.60;;;;;;5112285;27;19923;-68
2022/12/06 11:55:14;;;;;;;;;;;19.30;42.60;;;;;;5095042;28;19920;-69
2022/12/06 11:57:42;;;;;;;;;;;19.30;42.60;;;;;;5090252;28;19927;-68
2022/12/06 12:00:15;;;;;;;;;;;19.30;42.60;;;;;;5093734;28;19931;-72
2022/12/06 12:02:43;;;;;;;;;;;19.30;42.70;;;;;;5093112;27;19954;-68
2022/12/06 12:05:10;;;;;;;;;;;19.30;42.60;;;;;;5093424;28;19927;-71
2022/12/06 12:07:37;;;;;;;;;;;19.30;42.60;;;;;;5110946;28;20003;-70
2022/12/06 12:10:06;;;;;;;;;;;19.30;42.60;;;;;;5090809;28;19920;-69
2022/12/06 12:15:18;;;;;;;;;;;19.30;42.60;;;;;;5091653;28;19919;-73
2022/12/06 12:17:46;;;;;;;;;;;19.30;42.60;;;;;;5092259;27;19919;-69
2022/12/06 12:20:19;;;;;;;;;;;19.30;42.60;;;;;;5107494;28;19927;-68
2022/12/06 12:22:46;;;;;;;;;;;19.30;42.60;;;;;;5090520;28;19959;-70
2022/12/06 12:25:23;;;;;;;;;;;19.30;42.70;;;;;;5093069;28;19923;-69
2022/12/06 12:27:49;;;;;;;;;;;19.30;42.70;;;;;;5092591;28;19931;-71
2022/12/06 12:30:22;;;;;;;;;;;19.30;42.70;;;;;;5113765;27;19936;-68
2022/12/06 12:32:49;;;;;;;;;;;19.30;42.70;;;;;;5091557;28;19919;-70
2022/12/06 12:35:25;;;;;;;;;;;19.30;42.70;;;;;;5112141;27;19988;-69
2022/12/06 12:37:52;;;;;;;;;;;19.30;42.80;;;;;;5093347;28;20392;-71
2022/12/06 12:40:21;;;;;;;;;;;19.30;42.80;;;;;;5111469;27;19924;-71
2022/12/06 12:42:48;;;;;;;;;;;19.30;42.80;;;;;;5090965;28;19930;-71
2022/12/06 12:45:17;;;;;;;;;;;19.30;42.80;;;;;;5090619;28;19977;-68
2022/12/06 12:47:57;;;;;;;;;;;19.30;42.80;;;;;;5093165;27;20246;-68
2022/12/06 12:50:23;;;;;;;;;;;19.30;42.80;;;;;;5087919;27;20341;-69
2022/12/06 12:52:50;;;;;;;;;;;19.30;42.80;;;;;;5089472;28;19930;-68
2022/12/06 12:55:18;;;;;;;;;;;19.30;42.90;;;;;;5094083;28;19928;-69
2022/12/06 12:57:45;;;;;;;;;;;19.40;42.90;;;;;;5090607;28;19965;-65
2022/12/06 13:00:14;;;;;;;;;;;19.40;42.90;;;;;;5088724;28;19931;-65
2022/12/06 13:02:40;;;;;;;;;;;19.30;42.90;;;;;;5092901;27;19919;-71
2022/12/06 13:05:14;;;;;;;;;;;19.40;43.00;;;;;;5090610;28;19923;-70
2022/12/06 13:07:41;;;;;;;;;;;19.40;43.00;;;;;;5092893;27;20113;-68
2022/12/06 13:10:09;;;;;;;;;;;19.40;43.00;;;;;;5096657;27;19919;-68
2022/12/06 13:12:37;;;;;;;;;;;19.40;43.00;;;;;;5090152;28;19980;-65
2022/12/06 13:15:05;;;;;;;;;;;19.30;42.80;;;;;;5090191;28;19924;-67
2022/12/06 13:17:32;;;;;;;;;;;19.40;42.80;;;;;;5085764;28;19942;-65
2022/12/06 13:19:59;;;;;;;;;;;19.40;42.60;;;;;;5104665;28;19927;-65
2022/12/06 13:22:28;;;;;;;;;;;19.30;42.30;;;;;;5090951;28;19932;-66
2022/12/06 13:24:57;;;;;;;;;;;19.30;42.10;;;;;;5110649;28;19928;-63
2022/12/06 13:27:24;;;;;;;;;;;19.30;41.90;;;;;;5113927;27;20376;-65
2022/12/06 13:29:53;;;;;;;;;;;19.30;41.80;;;;;;5093691;28;19928;-64
2022/12/06 13:32:20;;;;;;;;;;;19.30;41.70;;;;;;5092326;28;20215;-65
2022/12/06 13:34:47;;;;;;;;;;;19.30;41.60;;;;;;5091855;28;19981;-65
2022/12/06 13:37:33;;;;;;;;;;;19.20;41.50;;;;;;5088558;28;19927;-64
2022/12/06 13:39:59;;;;;;;;;;;19.20;41.40;;;;;;5091410;28;19920;-66
2022/12/06 13:42:40;;;;;;;;;;;19.20;41.40;;;;;;5092498;28;20023;-68
2022/12/06 13:45:12;;;;;;;;;;;19.20;41.40;;;;;;5091663;28;19939;-65
2022/12/06 13:47:40;;;;;;;;;;;19.20;41.40;;;;;;5091404;28;19928;-65
2022/12/06 13:50:26;;;;;;;;;;;19.20;41.40;;;;;;5094156;28;19924;-65
2022/12/06 13:53:03;;;;;;;;;;;19.20;41.40;;;;;;5094475;28;20270;-66
2022/12/06 13:55:45;;;;;;;;;;;19.20;41.20;;;;;;5090456;28;19926;-65
2022/12/06 13:58:26;;;;;;;;;;;19.20;41.20;;;;;;5106564;28;19940;-64
2022/12/06 14:00:54;;;;;;;;;;;19.10;41.10;;;;;;5091946;28;19920;-64
2022/12/06 14:03:35;;;;;;;;;;;19.10;41.10;;;;;;5092121;28;20283;-63
2022/12/06 14:06:02;;;;;;;;;;;19.10;41.00;;;;;;5090714;28;19924;-64
2022/12/06 14:08:35;;;;;;;;;;;19.10;41.10;;;;;;5110491;28;19920;-65
2022/12/06 14:11:12;;;;;;;;;;;19.10;41.10;;;;;;5093570;28;19964;-64
2022/12/06 14:13:39;;;;;;;;;;;19.10;41.10;;;;;;5090933;28;19928;-68
2022/12/06 14:16:06;;;;;;;;;;;19.10;41.10;;;;;;5109976;28;19928;-73
2022/12/06 14:18:33;;;;;;;;;;;19.10;41.20;;;;;;5109374;28;20363;-70
2022/12/06 14:21:00;;;;;;;;;;;19.10;41.20;;;;;;5095289;28;19924;-67
2022/12/06 14:23:30;;;;;;;;;;;19.10;41.30;;;;;;5096091;28;19932;-69
2022/12/06 14:26:16;;;;;;;;;;;19.10;41.40;;;;;;5095823;28;19999;-69
2022/12/06 14:28:45;;;;;;;;;;;19.10;41.50;;;;;;5113535;28;19919;-67
2022/12/06 14:31:23;;;;;;;;;;;19.10;41.50;;;;;;5118590;27;19926;-67
2022/12/06 14:33:50;;;;;;;;;;;19.10;41.60;;;;;;5097149;27;19926;-66
2022/12/06 14:36:17;;;;;;;;;;;19.10;41.60;;;;;;5095853;28;19966;-67
2022/12/06 14:38:50;;;;;;;;;;;19.10;41.70;;;;;;5096137;28;19927;-69
2022/12/06 14:44:15;;;;;;;;;;;19.10;41.70;;;;;;5034355;28;19921;-66
2022/12/06 14:46:42;;;;;;;;;;;19.10;41.80;;;;;;5084635;28;19930;-69
2022/12/06 14:51:57;;;;;;;;;;;19.10;41.80;;;;;;5095029;28;19957;-68
2022/12/06 14:54:34;;;;;;;;;;;19.10;41.90;;;;;;5111026;27;20299;-68
2022/12/06 14:57:02;;;;;;;;;;;19.10;41.90;;;;;;5096039;28;20361;-68
2022/12/06 14:59:29;;;;;;;;;;;19.10;41.90;;;;;;5113524;28;19961;-67
2022/12/06 15:01:57;;;;;;;;;;;19.10;41.90;;;;;;5096281;27;19919;-66